Time;durP1;ratioP1;P1;durP2;ratioP2;P2;SDS_P1;SDS_P2;PMS_P1;PMS_P2;Temp;Humidity;BMP_temperature;BMP_pressure;BME280_temperature;BME280_humidity;BME280_pressure;Samples;Min_cycle;Max_cycle;Signal;HPM_P1;HPM_P2
2023/01/01 00:01:05;;;;;;;;;;;;;;;17.28;66.72;100233.91;5074477;28;19935;-60
2023/01/01 00:03:30;;;;;;;;;;;;;;;17.30;66.23;100234.69;5092030;28;19933;-61
2023/01/01 00:05:55;;;;;;;;;;;;;;;17.28;66.14;100239.28;5090461;28;20317;-60
2023/01/01 00:08:21;;;;;;;;;;;;;;;17.37;65.88;100232.50;5074090;28;19937;-60
2023/01/01 00:10:46;;;;;;;;;;;;;;;17.37;65.52;100241.47;5074063;28;19984;-60
2023/01/01 00:13:12;;;;;;;;;;;;;;;17.36;65.40;100236.16;5071828;28;19926;-60
2023/01/01 00:15:37;;;;;;;;;;;;;;;17.42;65.54;100243.88;5071695;28;19977;-60
2023/01/01 00:18:02;;;;;;;;;;;;;;;17.36;65.44;100230.78;5079493;28;19957;-61
2023/01/01 00:20:27;;;;;;;;;;;;;;;17.28;66.45;100228.53;5077590;28;19972;-60
2023/01/01 00:22:53;;;;;;;;;;;;;;;17.30;65.80;100231.16;5071805;28;20024;-61
2023/01/01 00:25:18;;;;;;;;;;;;;;;17.31;65.60;100228.38;5073132;28;19937;-61
2023/01/01 00:27:44;;;;;;;;;;;;;;;17.37;65.83;100228.00;5071444;28;20260;-60
2023/01/01 00:30:09;;;;;;;;;;;;;;;17.33;65.35;100221.06;5071308;28;19990;-60
2023/01/01 00:32:35;;;;;;;;;;;;;;;17.33;65.33;100229.13;5071644;28;20425;-61
2023/01/01 00:35:00;;;;;;;;;;;;;;;17.41;65.02;100234.97;5073514;28;20484;-60
2023/01/01 00:37:26;;;;;;;;;;;;;;;17.40;65.15;100237.72;5085153;28;19955;-60
2023/01/01 00:39:51;;;;;;;;;;;;;;;17.43;65.02;100240.25;5079059;28;19982;-60
2023/01/01 00:42:17;;;;;;;;;;;;;;;17.48;64.62;100238.22;5071837;28;19966;-60
2023/01/01 00:44:42;;;;;;;;;;;;;;;17.44;64.99;100244.66;5072146;28;19967;-60
2023/01/01 00:47:07;;;;;;;;;;;;;;;17.45;64.67;100247.31;5094140;28;20424;-60
2023/01/01 00:49:33;;;;;;;;;;;;;;;17.46;64.84;100248.19;5094404;28;19933;-60
2023/01/01 00:51:58;;;;;;;;;;;;;;;17.44;65.31;100244.66;5091788;28;19960;-61
2023/01/01 00:54:23;;;;;;;;;;;;;;;17.41;65.09;100245.72;5095554;28;20401;-61
2023/01/01 00:56:48;;;;;;;;;;;;;;;17.35;65.21;100246.06;5094904;28;19939;-61
2023/01/01 00:59:14;;;;;;;;;;;;;;;17.34;65.29;100248.81;5094256;28;19988;-61
2023/01/01 01:01:39;;;;;;;;;;;;;;;17.31;65.84;100260.63;5091929;28;19984;-61
2023/01/01 01:04:05;;;;;;;;;;;;;;;17.22;66.46;100271.88;5093757;28;20157;-61
2023/01/01 01:06:31;;;;;;;;;;;;;;;17.12;67.22;100265.28;5082307;28;20039;-61
2023/01/01 01:08:56;;;;;;;;;;;;;;;17.00;67.92;100271.34;5093855;28;19997;-61
2023/01/01 01:11:23;;;;;;;;;;;;;;;16.91;68.45;100271.84;5085615;28;19938;-61
2023/01/01 01:13:50;;;;;;;;;;;;;;;16.85;69.02;100282.94;5074234;28;20414;-60
2023/01/01 01:16:23;;;;;;;;;;;;;;;16.78;68.32;100282.41;5074328;28;19940;-61
2023/01/01 01:18:52;;;;;;;;;;;;;;;16.58;68.52;100255.72;5094581;28;20068;-60
2023/01/01 01:21:18;;;;;;;;;;;;;;;16.80;69.04;100287.69;5094981;28;19940;-60
2023/01/01 01:23:43;;;;;;;;;;;;;;;16.78;69.26;100290.47;5083499;28;20330;-61
2023/01/01 01:26:12;;;;;;;;;;;;;;;16.73;69.26;100283.56;5074324;28;20388;-60
2023/01/01 01:28:37;;;;;;;;;;;;;;;16.74;69.06;100290.69;5074400;28;19970;-60
2023/01/01 01:31:03;;;;;;;;;;;;;;;16.71;68.74;100296.22;5074553;28;20403;-60
2023/01/01 01:33:28;;;;;;;;;;;;;;;16.70;68.96;100298.06;5076676;28;20414;-60
2023/01/01 01:35:54;;;;;;;;;;;;;;;16.74;69.36;100296.03;5074877;28;19973;-61
2023/01/01 01:38:19;;;;;;;;;;;;;;;16.76;69.15;100299.53;5094556;28;20327;-61
2023/01/01 01:40:44;;;;;;;;;;;;;;;16.77;68.88;100306.66;5093161;28;19928;-61
2023/01/01 01:43:20;;;;;;;;;;;;;;;16.77;69.17;100307.50;5092040;28;19939;-61
2023/01/01 01:45:45;;;;;;;;;;;;;;;16.78;68.13;100308.38;5094480;28;20411;-60
2023/01/01 01:48:10;;;;;;;;;;;;;;;16.78;68.64;100319.13;5094324;28;19931;-61
2023/01/01 01:50:39;;;;;;;;;;;;;;;16.76;68.92;100331.78;5090194;28;19957;-60
2023/01/01 01:53:18;;;;;;;;;;;;;;;16.74;68.60;100323.78;5073230;28;20259;-60
2023/01/01 01:55:49;;;;;;;;;;;;;;;16.71;68.79;100323.06;5082551;28;20341;-60
2023/01/01 01:58:15;;;;;;;;;;;;;;;16.66;68.83;100333.19;5076451;28;19989;-60
2023/01/01 02:00:40;;;;;;;;;;;;;;;16.63;68.95;100322.63;5074033;28;19937;-58
2023/01/01 02:03:15;;;;;;;;;;;;;;;16.70;69.25;100332.09;5078946;28;19942;-58
2023/01/01 02:05:41;;;;;;;;;;;;;;;16.60;69.88;100330.84;5087625;28;19961;-58
2023/01/01 02:08:07;;;;;;;;;;;;;;;16.58;69.40;100320.19;5092917;28;19940;-58
2023/01/01 02:10:33;;;;;;;;;;;;;;;16.52;70.01;100317.78;5090615;28;19933;-58
2023/01/01 02:12:58;;;;;;;;;;;;;;;16.51;70.48;100315.19;5092469;28;19942;-59
2023/01/01 02:15:27;;;;;;;;;;;;;;;16.47;70.55;100309.13;5096474;28;19974;-59
2023/01/01 02:18:05;;;;;;;;;;;;;;;16.42;71.61;100308.47;5093707;28;19956;-58
2023/01/01 02:20:30;;;;;;;;;;;;;;;16.32;71.74;100314.38;5090010;28;20442;-59
2023/01/01 02:23:05;;;;;;;;;;;;;;;16.30;71.89;100316.25;5093552;28;20029;-58
2023/01/01 02:25:30;;;;;;;;;;;;;;;16.17;73.36;100316.03;5094097;28;20023;-58
2023/01/01 02:28:13;;;;;;;;;;;;;;;16.12;73.34;100312.72;5074407;28;20034;-58
2023/01/01 02:30:40;;;;;;;;;;;;;;;16.02;74.14;100315.91;5072945;28;20380;-59
2023/01/01 02:33:10;;;;;;;;;;;;;;;15.99;73.50;100310.72;5072747;28;19927;-59
2023/01/01 02:35:41;;;;;;;;;;;;;;;15.92;74.39;100306.59;5075439;28;19930;-59
2023/01/01 02:38:18;;;;;;;;;;;;;;;15.86;74.97;100306.91;5092634;28;20401;-58
2023/01/01 02:40:52;;;;;;;;;;;;;;;15.84;75.20;100306.97;5089098;28;19941;-59
2023/01/01 02:43:17;;;;;;;;;;;;;;;15.77;75.42;100295.69;5093438;28;19969;-59
2023/01/01 02:45:42;;;;;;;;;;;;;;;15.74;75.82;100295.84;5093148;28;20009;-59
2023/01/01 02:48:26;;;;;;;;;;;;;;;15.67;75.88;100305.13;5092848;28;19929;-58
2023/01/01 02:50:52;;;;;;;;;;;;;;;15.69;76.05;100302.38;5089556;28;19954;-59
2023/01/01 02:53:30;;;;;;;;;;;;;;;15.62;76.66;100295.56;5092878;28;20393;-58
2023/01/01 02:56:14;;;;;;;;;;;;;;;15.59;76.38;100304.63;5088163;28;19936;-58
2023/01/01 03:01:32;;;;;;;;;;;;;;;15.60;75.76;100303.69;5091694;28;19993;-58
2023/01/01 03:04:20;;;;;;;;;;;;;;;15.59;76.73;100301.94;5091736;28;19996;-58
2023/01/01 03:06:53;;;;;;;;;;;;;;;15.55;75.81;100300.34;5087817;28;19938;-59
2023/01/01 03:09:37;;;;;;;;;;;;;;;15.47;75.64;100302.53;5092262;28;19960;-58
2023/01/01 03:12:15;;;;;;;;;;;;;;;15.47;76.36;100312.38;5077441;28;19939;-59
2023/01/01 03:15:02;;;;;;;;;;;;;;;15.44;76.21;100312.53;5072436;28;19939;-59
2023/01/01 03:17:39;;;;;;;;;;;;;;;15.46;76.06;100306.16;5074556;28;19932;-58
2023/01/01 03:20:10;;;;;;;;;;;;;;;15.45;75.78;100315.13;5072140;28;19944;-58
2023/01/01 03:22:38;;;;;;;;;;;;;;;15.49;75.17;100306.00;5072273;28;20013;-58
2023/01/01 03:25:06;;;;;;;;;;;;;;;15.53;74.31;100307.59;5072083;28;20432;-59
2023/01/01 03:28:04;;;;;;;;;;;;;;;15.51;74.68;100312.19;5086097;28;19935;-58
2023/01/01 03:30:31;;;;;;;;;;;;;;;15.52;74.94;100311.22;5067561;28;19959;-59
2023/01/01 03:33:02;;;;;;;;;;;;;;;15.47;74.82;100313.25;5090775;28;19931;-58
2023/01/01 03:35:37;;;;;;;;;;;;;;;15.46;75.42;100310.66;5086417;28;20037;-58
2023/01/01 03:38:05;;;;;;;;;;;;;;;15.39;75.74;100312.75;5073457;28;19955;-58
2023/01/01 03:40:33;;;;;;;;;;;;;;;15.39;75.18;100310.06;5071131;28;19941;-58
2023/01/01 03:43:02;;;;;;;;;;;;;;;15.38;76.05;100308.31;5075862;28;19946;-58
2023/01/01 03:45:30;;;;;;;;;;;;;;;15.38;74.92;100308.31;5091900;28;19934;-59
2023/01/01 03:47:55;;;;;;;;;;;;;;;15.37;75.16;100311.91;5088015;28;20008;-59
2023/01/01 03:50:24;;;;;;;;;;;;;;;15.40;76.17;100317.16;5094710;28;19961;-58
2023/01/01 03:52:49;;;;;;;;;;;;;;;15.36;75.88;100320.91;5091809;28;19938;-58
2023/01/01 03:55:18;;;;;;;;;;;;;;;15.31;76.26;100316.69;5078936;28;19944;-59
2023/01/01 03:57:46;;;;;;;;;;;;;;;15.25;76.76;100322.34;5071718;28;20263;-58
2023/01/01 04:00:15;;;;;;;;;;;;;;;15.26;76.51;100319.59;5071693;28;19978;-59
2023/01/01 04:02:55;;;;;;;;;;;;;;;15.25;77.40;100317.00;5089377;28;19935;-58
2023/01/01 04:05:21;;;;;;;;;;;;;;;15.25;77.04;100315.19;5089287;28;19969;-58
2023/01/01 04:07:48;;;;;;;;;;;;;;;15.26;77.78;100319.59;5088333;28;19935;-58
2023/01/01 04:10:16;;;;;;;;;;;;;;;15.30;76.74;100315.84;5086218;28;20007;-58
2023/01/01 04:12:47;;;;;;;;;;;;;;;15.32;77.07;100323.81;5071796;28;19934;-57
2023/01/01 04:15:13;;;;;;;;;;;;;;;15.34;76.65;100317.44;5072080;28;20023;-59
2023/01/01 04:17:38;;;;;;;;;;;;;;;15.41;75.89;100324.28;5073877;28;20426;-58
2023/01/01 04:20:04;;;;;;;;;;;;;;;15.46;75.58;100316.88;5074098;28;19940;-58
2023/01/01 04:22:29;;;;;;;;;;;;;;;15.52;75.85;100313.91;5072546;28;19954;-58
2023/01/01 04:24:55;;;;;;;;;;;;;;;15.55;75.28;100315.59;5099070;28;19930;-58
2023/01/01 04:27:20;;;;;;;;;;;;;;;15.63;73.91;100314.25;5116323;28;20389;-58
2023/01/01 04:29:45;;;;;;;;;;;;;;;15.70;73.37;100315.69;5107049;28;19941;-58
2023/01/01 04:32:10;;;;;;;;;;;;;;;15.70;73.74;100317.50;5075620;28;19932;-59
2023/01/01 04:34:36;;;;;;;;;;;;;;;15.72;73.55;100318.31;5077702;28;20432;-58
2023/01/01 04:37:01;;;;;;;;;;;;;;;15.72;73.69;100316.50;5085366;28;20479;-58
2023/01/01 04:39:26;;;;;;;;;;;;;;;15.76;73.98;100315.38;5086057;28;19978;-58
2023/01/01 04:41:51;;;;;;;;;;;;;;;15.77;73.95;100322.50;5075569;28;19930;-59
2023/01/01 04:44:17;;;;;;;;;;;;;;;15.75;73.15;100319.03;5075539;28;19968;-58
2023/01/01 04:46:42;;;;;;;;;;;;;;;15.74;73.73;100325.34;5077299;28;19973;-58
2023/01/01 04:49:08;;;;;;;;;;;;;;;15.66;74.08;100332.91;5075521;28;19929;-58
2023/01/01 04:51:33;;;;;;;;;;;;;;;15.63;73.65;100345.56;5083517;28;19962;-58
2023/01/01 04:53:59;;;;;;;;;;;;;;;15.61;74.35;100337.63;5095382;28;19934;-59
2023/01/01 04:56:24;;;;;;;;;;;;;;;15.58;73.94;100343.09;5095901;28;19946;-58
2023/01/01 04:58:49;;;;;;;;;;;;;;;15.53;74.85;100345.13;5094591;28;20042;-59
2023/01/01 05:01:19;;;;;;;;;;;;;;;15.52;74.36;100348.75;5095535;28;19929;-58
2023/01/01 05:03:45;;;;;;;;;;;;;;;15.45;75.29;100349.13;5092043;28;20405;-59
2023/01/01 05:06:11;;;;;;;;;;;;;;;15.47;74.67;100356.16;5090971;28;19951;-59
2023/01/01 05:08:37;;;;;;;;;;;;;;;15.46;75.10;100341.00;5095230;28;19937;-58
2023/01/01 05:11:04;;;;;;;;;;;;;;;15.42;75.74;100347.44;5090836;28;19944;-58
2023/01/01 05:13:29;;;;;;;;;;;;;;;15.40;75.69;100354.69;5074689;28;19933;-58
2023/01/01 05:15:54;;;;;;;;;;;;;;;15.38;74.82;100356.56;5074362;28;19937;-58
2023/01/01 05:18:20;;;;;;;;;;;;;;;15.33;75.74;100363.94;5059187;28;19955;-58
2023/01/01 05:20:45;;;;;;;;;;;;;;;15.30;75.72;100369.44;5074727;28;19931;-58
2023/01/01 05:23:10;;;;;;;;;;;;;;;15.29;75.84;100361.47;5076525;28;20373;-59
2023/01/01 05:25:35;;;;;;;;;;;;;;;15.25;75.30;100367.91;5074336;28;20029;-58
2023/01/01 05:28:01;;;;;;;;;;;;;;;15.24;75.84;100368.84;5081812;28;19942;-58
2023/01/01 05:30:26;;;;;;;;;;;;;;;15.22;75.46;100371.59;5094529;28;19927;-58
2023/01/01 05:32:51;;;;;;;;;;;;;;;15.22;75.66;100378.78;5090371;28;20441;-59
2023/01/01 05:35:17;;;;;;;;;;;;;;;15.19;75.25;100374.41;5073018;28;19935;-58
2023/01/01 05:37:42;;;;;;;;;;;;;;;15.19;75.89;100377.09;5089409;28;19952;-58
2023/01/01 05:40:07;;;;;;;;;;;;;;;15.18;75.04;100379.84;5090936;28;19942;-58
2023/01/01 05:42:33;;;;;;;;;;;;;;;15.18;75.32;100380.72;5090703;28;20359;-58
2023/01/01 05:44:58;;;;;;;;;;;;;;;15.21;75.45;100372.53;5091953;28;19976;-58
2023/01/01 05:47:23;;;;;;;;;;;;;;;15.17;76.18;100378.97;5096545;28;20017;-58
2023/01/01 05:49:48;;;;;;;;;;;;;;;15.09;75.39;100381.13;5093314;28;19936;-58
2023/01/01 05:52:14;;;;;;;;;;;;;;;15.11;75.63;100389.09;5088231;28;19964;-59
2023/01/01 05:54:39;;;;;;;;;;;;;;;15.08;75.85;100390.13;5073593;28;19935;-58
2023/01/01 05:57:05;;;;;;;;;;;;;;;15.04;75.30;100391.19;5073037;28;20252;-59
2023/01/01 05:59:30;;;;;;;;;;;;;;;15.06;74.96;100381.28;5076341;28;19949;-59
2023/01/01 06:01:55;;;;;;;;;;;;;;;15.05;75.81;100389.38;5075951;28;20334;-59
2023/01/01 06:04:20;;;;;;;;;;;;;;;15.04;75.17;100387.66;5086984;28;20015;-58
2023/01/01 06:06:46;;;;;;;;;;;;;;;15.08;75.78;100383.88;5088921;28;19939;-58
2023/01/01 06:09:11;;;;;;;;;;;;;;;15.07;76.04;100385.72;5093372;28;19968;-59
2023/01/01 06:11:36;;;;;;;;;;;;;;;15.04;75.69;100393.84;5085669;28;19947;-59
2023/01/01 06:14:01;;;;;;;;;;;;;;;15.03;75.52;100381.41;5073679;28;20304;-58
2023/01/01 06:16:27;;;;;;;;;;;;;;;15.04;75.69;100383.13;5074695;28;20405;-59
2023/01/01 06:18:53;;;;;;;;;;;;;;;15.04;75.41;100388.50;5074559;28;19948;-58
2023/01/01 06:21:20;;;;;;;;;;;;;;;15.03;74.87;100399.28;5075879;28;20469;-58
2023/01/01 06:23:45;;;;;;;;;;;;;;;15.07;74.86;100396.44;5073641;28;19937;-58
2023/01/01 06:26:12;;;;;;;;;;;;;;;15.04;75.82;100399.22;5074975;28;19933;-58
2023/01/01 06:28:38;;;;;;;;;;;;;;;15.03;75.85;100402.84;5076113;28;19932;-58
2023/01/01 06:31:04;;;;;;;;;;;;;;;14.99;76.26;100395.88;5073200;28;20473;-58
2023/01/01 06:33:30;;;;;;;;;;;;;;;14.94;75.41;100397.88;5073363;28;19959;-59
2023/01/01 06:35:55;;;;;;;;;;;;;;;14.88;76.07;100398.16;5076396;28;20405;-59
2023/01/01 06:38:20;;;;;;;;;;;;;;;14.87;76.05;100408.94;5093214;28;19955;-59
2023/01/01 06:40:59;;;;;;;;;;;;;;;14.86;76.88;100409.91;5089900;28;19934;-58
2023/01/01 06:43:25;;;;;;;;;;;;;;;14.81;76.15;100407.41;5072777;28;20023;-58
2023/01/01 06:46:00;;;;;;;;;;;;;;;14.79;76.29;100409.28;5072804;28;20026;-58
2023/01/01 06:48:26;;;;;;;;;;;;;;;14.74;76.92;100415.78;5093487;28;19944;-58
2023/01/01 06:50:52;;;;;;;;;;;;;;;14.66;77.86;100417.91;5102986;28;19966;-58
2023/01/01 06:53:17;;;;;;;;;;;;;;;14.58;78.27;100426.25;5085374;28;20327;-58
2023/01/01 06:55:48;;;;;;;;;;;;;;;14.44;78.73;100429.53;5072861;28;19958;-59
2023/01/01 06:58:14;;;;;;;;;;;;;;;14.38;79.04;100439.63;5072937;28;19950;-58
2023/01/01 07:00:39;;;;;;;;;;;;;;;14.35;78.88;100435.25;5074721;28;19948;-58
2023/01/01 07:03:04;;;;;;;;;;;;;;;14.33;79.46;100442.47;5074975;28;19936;-58
2023/01/01 07:05:29;;;;;;;;;;;;;;;14.28;79.95;100454.31;5083172;28;19955;-58
2023/01/01 07:07:55;;;;;;;;;;;;;;;14.28;79.08;100441.78;5090491;28;20424;-58
2023/01/01 07:10:20;;;;;;;;;;;;;;;14.21;80.17;100442.06;5090389;28;19933;-58
2023/01/01 07:12:45;;;;;;;;;;;;;;;14.20;80.46;100440.34;5074743;28;19990;-58
2023/01/01 07:15:10;;;;;;;;;;;;;;;14.18;80.33;100453.75;5072644;28;19929;-58
2023/01/01 07:17:36;;;;;;;;;;;;;;;14.16;80.72;100446.72;5072272;28;20307;-59
2023/01/01 07:20:01;;;;;;;;;;;;;;;14.14;80.37;100451.28;5074324;28;20499;-58
2023/01/01 07:22:26;;;;;;;;;;;;;;;14.16;80.38;100461.00;5071768;28;19938;-58
2023/01/01 07:24:51;;;;;;;;;;;;;;;14.11;80.83;100464.78;5070271;28;19931;-58
2023/01/01 07:27:17;;;;;;;;;;;;;;;14.17;80.34;100467.19;5074633;28;20360;-58
2023/01/01 07:29:42;;;;;;;;;;;;;;;14.21;80.00;100475.06;5072226;28;19952;-59
2023/01/01 07:32:11;;;;;;;;;;;;;;;14.24;80.04;100471.38;5074354;28;19934;-59
2023/01/01 07:34:36;;;;;;;;;;;;;;;14.27;78.69;100476.63;5072176;28;19933;-59
2023/01/01 07:37:02;;;;;;;;;;;;;;;14.32;78.37;100471.97;5081895;28;19936;-57
2023/01/01 07:39:27;;;;;;;;;;;;;;;14.33;78.29;100484.44;5083728;28;19959;-58
2023/01/01 07:41:52;;;;;;;;;;;;;;;14.32;78.42;100488.91;5092368;28;19928;-58
2023/01/01 07:44:17;;;;;;;;;;;;;;;14.31;78.80;100497.00;5084647;28;19941;-58
2023/01/01 07:46:43;;;;;;;;;;;;;;;14.25;79.01;100491.88;5071672;28;20012;-58
2023/01/01 07:49:08;;;;;;;;;;;;;;;14.26;79.31;100498.97;5078477;28;19971;-58
2023/01/01 07:51:33;;;;;;;;;;;;;;;14.24;78.98;100506.16;5086040;28;19964;-58
2023/01/01 07:53:59;;;;;;;;;;;;;;;14.25;79.95;100515.94;5092133;28;19954;-58
2023/01/01 07:56:24;;;;;;;;;;;;;;;14.28;79.34;100505.16;5083164;28;19940;-58
2023/01/01 07:58:49;;;;;;;;;;;;;;;14.36;79.54;100511.06;5071432;28;19951;-58
2023/01/01 08:01:14;;;;;;;;;;;;;;;14.43;78.95;100523.28;5077457;28;20393;-58
2023/01/01 08:03:40;;;;;;;;;;;;;;;14.53;78.39;100524.63;5081359;28;19937;-58
2023/01/01 08:06:09;;;;;;;;;;;;;;;14.74;76.86;100522.88;5089600;28;19933;-58
2023/01/01 08:08:34;;;;;;;;;;;;;;;14.84;76.07;100514.41;5073955;28;19944;-58
2023/01/01 08:11:00;;;;;;;;;;;;;;;14.96;75.68;100515.72;5071663;28;19983;-58
2023/01/01 08:13:25;;;;;;;;;;;;;;;14.94;75.88;100515.75;5081129;28;20346;-58
2023/01/01 08:15:51;;;;;;;;;;;;;;;14.97;75.29;100526.34;5090164;28;20332;-59
2023/01/01 08:18:16;;;;;;;;;;;;;;;15.04;75.20;100519.78;5091704;28;20698;-59
2023/01/01 08:20:41;;;;;;;;;;;;;;;15.04;75.50;100522.47;5087541;28;19993;-58
2023/01/01 08:23:06;;;;;;;;;;;;;;;15.09;74.72;100520.44;5091819;28;19986;-59
2023/01/01 08:25:32;;;;;;;;;;;;;;;15.19;74.25;100524.47;5089846;28;19942;-58
2023/01/01 08:27:57;;;;;;;;;;;;;;;15.26;73.87;100528.66;5072464;28;20553;-58
2023/01/01 08:30:22;;;;;;;;;;;;;;;15.34;74.71;100525.63;5071220;28;19981;-58
2023/01/01 08:32:48;;;;;;;;;;;;;;;15.42;73.14;100529.75;5073719;28;19982;-59
2023/01/01 08:35:13;;;;;;;;;;;;;;;15.56;72.64;100523.78;5071373;28;20081;-58
2023/01/01 08:37:38;;;;;;;;;;;;;;;15.60;71.21;100520.88;5085642;28;19941;-58
2023/01/01 08:40:04;;;;;;;;;;;;;;;15.67;70.98;100525.03;5096763;28;19939;-58
2023/01/01 08:42:29;;;;;;;;;;;;;;;15.73;69.35;100518.53;5091635;28;19988;-58
2023/01/01 08:44:54;;;;;;;;;;;;;;;15.81;68.30;100521.72;5091793;28;20257;-59
2023/01/01 08:47:21;;;;;;;;;;;;;;;15.94;68.63;100519.34;5074720;28;19937;-58
2023/01/01 08:49:46;;;;;;;;;;;;;;;16.08;67.73;100515.06;5071331;28;20426;-58
2023/01/01 08:52:12;;;;;;;;;;;;;;;16.22;68.07;100517.09;5079058;28;19956;-58
2023/01/01 08:54:37;;;;;;;;;;;;;;;16.26;67.46;100518.72;5088559;28;19928;-58
2023/01/01 08:57:03;;;;;;;;;;;;;;;16.34;67.07;100527.28;5073702;28;20380;-58
2023/01/01 08:59:28;;;;;;;;;;;;;;;16.52;67.23;100523.72;5089425;28;19956;-58
2023/01/01 09:01:53;;;;;;;;;;;;;;;16.76;66.73;100522.50;5085763;28;20308;-58
2023/01/01 09:04:19;;;;;;;;;;;;;;;16.88;64.64;100519.22;5090301;28;20008;-59
2023/01/01 09:06:44;;;;;;;;;;;;;;;17.04;64.48;100525.56;5082016;28;19937;-58
2023/01/01 09:09:09;;;;;;;;;;;;;;;17.17;63.26;100525.78;5071769;28;19933;-58
2023/01/01 09:11:35;;;;;;;;;;;;;;;17.47;61.94;100530.50;5077019;28;19960;-58
2023/01/01 09:14:00;;;;;;;;;;;;;;;18.27;59.43;100524.25;5074843;28;19925;-58
2023/01/01 09:16:25;;;;;;;;;;;;;;;19.35;56.69;100533.25;5076513;28;19933;-59
2023/01/01 09:18:51;;;;;;;;;;;;;;;20.49;52.91;100543.16;5074646;28;19951;-59
2023/01/01 09:21:16;;;;;;;;;;;;;;;21.52;48.84;100540.63;5074619;28;20302;-59
2023/01/01 09:23:41;;;;;;;;;;;;;;;22.16;47.52;100543.28;5074305;28;19974;-58
2023/01/01 09:26:08;;;;;;;;;;;;;;;22.98;45.52;100535.38;5076377;28;19993;-59
2023/01/01 09:28:34;;;;;;;;;;;;;;;23.68;44.04;100541.72;5074681;28;19936;-58
2023/01/01 09:31:00;;;;;;;;;;;;;;;24.04;41.93;100535.25;5076761;28;19933;-59
2023/01/01 09:33:25;;;;;;;;;;;;;;;23.46;43.00;100538.94;5074380;28;19984;-59
2023/01/01 09:35:51;;;;;;;;;;;;;;;23.21;42.79;100539.09;5074928;28;20073;-58
2023/01/01 09:38:16;;;;;;;;;;;;;;;23.34;43.30;100529.03;5094611;28;20430;-59
2023/01/01 09:40:47;;;;;;;;;;;;;;;23.90;43.55;100540.91;5090456;28;19939;-59
2023/01/01 09:43:12;;;;;;;;;;;;;;;24.71;40.93;100545.19;5094133;28;19927;-59
2023/01/01 09:46:01;;;;;;;;;;;;;;;24.80;40.84;100541.69;5093207;28;20297;-59
2023/01/01 09:48:28;;;;;;;;;;;;;;;24.98;40.25;100533.84;5080675;28;19993;-58
2023/01/01 09:50:54;;;;;;;;;;;;;;;25.30;39.34;100532.88;5089758;28;20338;-58
2023/01/01 09:53:26;;;;;;;;;;;;;;;25.01;40.25;100549.94;5076081;28;19939;-59
2023/01/01 09:55:55;;;;;;;;;;;;;;;25.11;39.80;100556.31;5095623;28;20024;-59
2023/01/01 09:58:23;;;;;;;;;;;;;;;23.97;41.20;100559.31;5091916;28;19980;-58
2023/01/01 10:00:51;;;;;;;;;;;;;;;22.75;43.64;100571.50;5076696;28;19940;-59
2023/01/01 10:03:29;;;;;;;;;;;;;;;21.62;45.67;100560.69;5093812;28;19934;-58
2023/01/01 10:06:00;;;;;;;;;;;;;;;20.58;48.52;100562.34;5093091;28;19945;-58
2023/01/01 10:08:28;;;;;;;;;;;;;;;19.75;50.23;100557.78;5075898;28;19956;-59
2023/01/01 10:11:03;;;;;;;;;;;;;;;19.21;52.40;100567.34;5073531;28;20005;-58
2023/01/01 10:13:41;;;;;;;;;;;;;;;19.02;54.34;100531.63;5073623;28;19964;-59
2023/01/01 10:16:12;;;;;;;;;;;;;;;19.40;52.53;100568.03;5075305;28;20338;-58
2023/01/01 10:18:39;;;;;;;;;;;;;;;20.72;50.97;100565.00;5073583;28;20042;-58
2023/01/01 10:21:18;;;;;;;;;;;;;;;21.42;48.73;100561.19;5088971;28;20403;-58
2023/01/01 10:23:49;;;;;;;;;;;;;;;21.31;48.68;100557.47;5114228;28;19939;-59
2023/01/01 10:26:19;;;;;;;;;;;;;;;22.13;48.23;100558.88;5096964;28;19975;-59
2023/01/01 10:29:02;;;;;;;;;;;;;;;23.08;44.95;100560.84;5073641;28;19933;-59
2023/01/01 10:31:31;;;;;;;;;;;;;;;23.85;42.69;100551.28;5073949;28;19937;-59
2023/01/01 10:33:57;;;;;;;;;;;;;;;23.80;43.31;100537.19;5073818;28;19943;-59
2023/01/01 10:36:23;;;;;;;;;;;;;;;23.61;43.06;100536.91;5078157;28;20312;-58
2023/01/01 10:38:49;;;;;;;;;;;;;;;23.33;42.61;100539.03;5088799;28;19954;-58
2023/01/01 10:41:16;;;;;;;;;;;;;;;23.18;43.66;100528.44;5093869;28;20437;-59
2023/01/01 10:43:41;;;;;;;;;;;;;;;23.54;42.13;100528.38;5091729;28;19931;-59
2023/01/01 10:46:09;;;;;;;;;;;;;;;23.91;41.17;100523.59;5072145;28;20021;-59
2023/01/01 10:48:34;;;;;;;;;;;;;;;24.60;40.04;100521.53;5054053;28;20013;-59
2023/01/01 10:51:00;;;;;;;;;;;;;;;24.48;39.94;100511.66;5086208;28;19961;-59
2023/01/01 10:53:30;;;;;;;;;;;;;;;24.66;40.00;100506.56;5092021;28;19977;-59
2023/01/01 10:56:04;;;;;;;;;;;;;;;25.00;39.54;100505.50;5085193;28;20025;-59
2023/01/01 10:58:43;;;;;;;;;;;;;;;24.91;39.80;100506.25;5092497;28;19989;-59
2023/01/01 11:01:17;;;;;;;;;;;;;;;24.12;40.09;100505.63;5091205;28;19932;-58
2023/01/01 11:03:56;;;;;;;;;;;;;;;23.36;41.29;100508.91;5081646;28;19946;-58
2023/01/01 11:06:24;;;;;;;;;;;;;;;23.88;42.10;100507.56;5087093;28;19982;-58
2023/01/01 11:08:51;;;;;;;;;;;;;;;24.11;40.95;100503.91;5073202;28;20050;-58
2023/01/01 11:11:31;;;;;;;;;;;;;;;24.13;41.03;100499.22;5071547;28;20039;-58
2023/01/01 11:13:58;;;;;;;;;;;;;;;24.66;40.18;100495.69;5073923;28;19941;-58
2023/01/01 11:16:24;;;;;;;;;;;;;;;24.78;39.73;100489.22;5072721;28;19935;-57
2023/01/01 11:18:50;;;;;;;;;;;;;;;25.21;39.03;100489.19;5072348;28;20422;-58
2023/01/01 11:21:20;;;;;;;;;;;;;;;25.74;38.70;100489.06;5074716;28;19934;-58
2023/01/01 11:23:46;;;;;;;;;;;;;;;25.69;38.47;100485.00;5072274;28;19956;-58
2023/01/01 11:26:11;;;;;;;;;;;;;;;26.18;38.34;100485.13;5076977;28;19934;-59
2023/01/01 11:28:36;;;;;;;;;;;;;;;26.60;38.58;100488.56;5072737;28;19945;-58
2023/01/01 11:31:11;;;;;;;;;;;;;;;26.97;36.60;100486.94;5091466;28;20064;-58
2023/01/01 11:33:42;;;;;;;;;;;;;;;26.91;36.84;100484.78;5090620;28;20009;-58
2023/01/01 11:36:08;;;;;;;;;;;;;;;26.99;36.08;100476.72;5080281;28;19981;-59
2023/01/01 11:38:33;;;;;;;;;;;;;;;26.92;37.90;100470.09;5090325;28;19952;-58
2023/01/01 11:41:05;;;;;;;;;;;;;;;26.21;37.86;100473.94;5085126;28;19937;-58
2023/01/01 11:43:39;;;;;;;;;;;;;;;25.63;37.96;100472.75;5070889;28;20004;-59
2023/01/01 11:46:09;;;;;;;;;;;;;;;25.67;39.36;100452.41;5070653;28;20077;-59
2023/01/01 11:48:35;;;;;;;;;;;;;;;25.65;38.34;100448.97;5087626;28;20366;-58
2023/01/01 11:51:01;;;;;;;;;;;;;;;25.56;38.96;100441.63;5094632;28;19920;-58
2023/01/01 11:53:31;;;;;;;;;;;;;;;25.25;39.39;100445.25;5084341;28;19917;-58
2023/01/01 11:56:05;;;;;;;;;;;;;;;25.20;39.20;100447.50;5089374;28;20363;-58
2023/01/01 11:58:50;;;;;;;;;;;;;;;24.41;40.69;100442.44;5082642;28;19928;-58
2023/01/01 12:01:20;;;;;;;;;;;;;;;23.62;41.33;100447.16;5073942;28;19920;-58
2023/01/01 12:03:58;;;;;;;;;;;;;;;23.28;43.46;100446.22;5087629;28;19920;-58
2023/01/01 12:06:33;;;;;;;;;;;;;;;23.37;44.02;100431.94;5091488;28;19912;-58
2023/01/01 12:09:03;;;;;;;;;;;;;;;23.96;42.49;100439.84;5092048;28;19916;-58
2023/01/01 12:11:29;;;;;;;;;;;;;;;24.32;42.28;100436.88;5080485;28;20010;-58
2023/01/01 12:14:17;;;;;;;;;;;;;;;24.45;40.86;100426.72;5071753;28;20628;-58
2023/01/01 12:16:53;;;;;;;;;;;;;;;24.29;40.79;100423.56;5073670;28;19916;-59
2023/01/01 12:19:22;;;;;;;;;;;;;;;23.97;41.94;100422.59;5071395;28;19949;-58
2023/01/01 12:21:49;;;;;;;;;;;;;;;23.60;41.88;100410.22;5076490;28;19916;-59
2023/01/01 12:24:16;;;;;;;;;;;;;;;23.23;42.11;100395.94;5071590;28;19916;-58
2023/01/01 12:27:01;;;;;;;;;;;;;;;22.93;42.15;100398.34;5071764;28;19912;-58
2023/01/01 12:29:35;;;;;;;;;;;;;;;22.69;43.23;100400.22;5071721;28;20001;-58
2023/01/01 12:32:08;;;;;;;;;;;;;;;22.41;43.52;100398.69;5081399;28;19916;-58
2023/01/01 12:34:51;;;;;;;;;;;;;;;22.27;43.95;100388.03;5071360;28;19961;-58
2023/01/01 12:37:29;;;;;;;;;;;;;;;22.14;44.84;100398.06;5079307;28;19920;-58
2023/01/01 12:40:00;;;;;;;;;;;;;;;22.19;45.17;100387.72;5071584;28;19924;-58
2023/01/01 12:42:54;;;;;;;;;;;;;;;22.18;44.07;100392.28;5072118;28;20073;-58